Time;durP1;ratioP1;P1;durP2;ratioP2;P2;SDS_P1;SDS_P2;PMS_P1;PMS_P2;Temp;Humidity;BMP_temperature;BMP_pressure;BME280_temperature;BME280_humidity;BME280_pressure;Samples;Min_cycle;Max_cycle;Signal;HPM_P1;HPM_P2
2022/07/23 00:01:04;;;;;;;5.68;5.38;;;;;;;16.13;100.00;101387.13;6022904;23;20035;-72
2022/07/23 00:03:30;;;;;;;7.65;7.15;;;;;;;16.55;100.00;101451.50;6047436;23;20558;-72
2022/07/23 00:05:57;;;;;;;6.20;5.80;;;;;;;16.41;100.00;101440.94;6052622;23;20014;-72
2022/07/23 00:08:23;;;;;;;7.00;6.50;;;;;;;16.11;100.00;101401.41;6035495;23;20079;-73
2022/07/23 00:10:50;;;;;;;5.80;5.50;;;;;;;16.26;100.00;101404.88;6058356;23;20025;-72
2022/07/23 00:13:17;;;;;;;6.07;5.78;;;;;;;16.57;100.00;101454.06;6012063;23;20030;-73
2022/07/23 00:15:43;;;;;;;6.82;6.38;;;;;;;16.13;100.00;101383.63;6054243;23;20030;-72
2022/07/23 00:18:09;;;;;;;6.35;5.80;;;;;;;16.57;100.00;101454.06;6025583;23;20077;-72
2022/07/23 00:20:36;;;;;;;7.28;6.88;;;;;;;16.60;100.00;101456.53;6023734;23;20555;-72
2022/07/23 00:23:02;;;;;;;7.43;6.93;;;;;;;16.62;100.00;101449.31;6045318;23;20026;-71
2022/07/23 00:25:29;;;;;;;6.72;6.43;;;;;;;16.17;100.00;101393.06;6015696;23;20076;-72
2022/07/23 00:27:58;;;;;;;5.72;5.35;;;;;;;16.54;100.00;101451.63;6035663;23;20025;-72
2022/07/23 00:30:25;;;;;;;7.75;7.25;;;;;;;16.39;100.00;101434.06;6015340;23;20276;-72
2022/07/23 00:32:56;;;;;;;6.13;5.82;;;;;;;16.50;100.00;101450.13;6059345;23;20088;-72
2022/07/23 00:35:25;;;;;;;5.93;5.63;;;;;;;16.14;100.00;101398.56;6027579;23;20170;-72
2022/07/23 00:37:53;;;;;;;6.18;5.80;;;;;;;16.02;100.00;101386.97;6042686;23;20029;-71
2022/07/23 00:40:19;;;;;;;5.82;5.53;;;;;;;15.31;100.00;101260.91;6032907;23;20251;-72
2022/07/23 00:42:46;;;;;;;6.45;6.05;;;;;;;15.90;100.00;101356.00;6022430;23;20038;-72
2022/07/23 00:45:12;;;;;;;6.03;5.72;;;;;;;15.79;100.00;101351.38;6056278;23;20370;-73
2022/07/23 00:47:39;;;;;;;7.65;7.07;;;;;;;15.71;100.00;101351.81;6053048;23;20653;-72
2022/07/23 00:50:07;;;;;;;5.32;5.10;;;;;;;16.22;100.00;101443.94;6025004;23;20039;-72
2022/07/23 00:52:34;;;;;;;5.32;5.03;;;;;;;16.22;100.00;101433.34;6055560;23;20026;-72
2022/07/23 00:55:02;;;;;;;5.78;5.47;;;;;;;16.22;100.00;101449.25;6062541;23;20014;-72
2022/07/23 00:57:29;;;;;;;5.82;5.53;;;;;;;16.03;100.00;101398.41;6035295;23;20090;-72
2022/07/23 00:59:57;;;;;;;5.53;5.25;;;;;;;15.87;100.00;101367.59;6054108;23;20007;-72
2022/07/23 01:02:25;;;;;;;7.35;6.95;;;;;;;15.69;100.00;101327.25;6059748;23;20026;-72
2022/07/23 01:04:52;;;;;;;5.25;5.05;;;;;;;16.01;100.00;101382.59;6051108;23;20014;-72
2022/07/23 01:07:20;;;;;;;5.53;5.22;;;;;;;15.97;100.00;101373.16;6056192;23;20054;-71
2022/07/23 01:09:47;;;;;;;5.90;5.60;;;;;;;16.37;100.00;101431.50;6048269;23;20470;-73
2022/07/23 01:12:13;;;;;;;6.03;5.72;;;;;;;15.82;100.00;101351.19;6059645;23;20026;-72
2022/07/23 01:14:40;;;;;;;7.20;6.78;;;;;;;15.61;100.00;101342.75;6050247;23;20585;-72
2022/07/23 01:17:06;;;;;;;6.47;5.82;;;;;;;16.24;100.00;101434.09;6054688;23;20072;-71
2022/07/23 01:19:33;;;;;;;6.07;5.68;;;;;;;14.90;100.00;101203.56;6044954;23;20033;-72
2022/07/23 01:22:03;;;;;;;6.57;6.07;;;;;;;15.92;100.00;101397.28;6048797;23;20018;-72
2022/07/23 01:24:30;;;;;;;7.43;6.93;;;;;;;16.13;100.00;101413.59;6049764;23;20026;-72
2022/07/23 01:26:57;;;;;;;5.22;4.93;;;;;;;15.72;100.00;101364.16;6052006;23;20302;-71
2022/07/23 01:29:23;;;;;;;7.28;6.88;;;;;;;16.05;100.00;101404.44;6047610;23;20646;-73
2022/07/23 01:31:50;;;;;;;6.13;5.82;;;;;;;16.17;100.00;101438.09;6036476;23;20085;-73
2022/07/23 01:34:16;;;;;;;6.40;6.00;;;;;;;15.84;100.00;101391.63;6022616;23;20018;-72
2022/07/23 01:36:43;;;;;;;5.72;5.43;;;;;;;15.67;100.00;101362.69;6030383;23;21436;-72
2022/07/23 01:39:09;;;;;;;6.07;5.70;;;;;;;15.36;100.00;101327.59;6051377;23;20022;-72
2022/07/23 01:41:36;;;;;;;7.80;7.38;;;;;;;15.45;100.00;101342.88;6055743;23;20320;-72
2022/07/23 01:44:03;;;;;;;5.88;5.47;;;;;;;15.56;100.00;101364.22;6065194;23;20014;-72
2022/07/23 01:46:29;;;;;;;7.15;6.75;;;;;;;15.48;100.00;101365.66;6049494;23;20033;-73
2022/07/23 01:48:56;;;;;;;5.10;4.90;;;;;;;15.58;100.00;101387.94;6077750;23;20413;-72
2022/07/23 01:51:22;;;;;;;7.55;7.07;;;;;;;15.06;100.00;101310.03;6083830;23;20253;-72
2022/07/23 01:53:49;;;;;;;6.03;5.72;;;;;;;15.25;100.00;101333.53;6081773;23;20451;-73
2022/07/23 01:56:15;;;;;;;6.22;5.82;;;;;;;15.30;100.00;101351.78;6088418;23;20196;-72
2022/07/23 01:58:42;;;;;;;7.53;7.05;;;;;;;15.07;100.00;101318.81;6056951;23;20022;-71
2022/07/23 02:01:09;;;;;;;5.68;5.38;;;;;;;15.44;100.00;101385.31;6052380;23;20469;-71
2022/07/23 02:03:35;;;;;;;6.70;6.40;;;;;;;15.41;100.00;101378.41;6079550;23;20043;-72
2022/07/23 02:06:02;;;;;;;6.50;6.07;;;;;;;15.49;100.00;101402.59;6081765;23;20085;-72
2022/07/23 02:08:28;;;;;;;6.53;6.13;;;;;;;14.08;100.00;101175.94;6079827;23;20036;-72
2022/07/23 02:10:55;;;;;;;5.95;5.60;;;;;;;15.32;100.00;101379.81;6055576;23;20187;-72
2022/07/23 02:13:22;;;;;;;5.50;5.22;;;;;;;15.31;100.00;101387.84;6072468;23;20102;-72
2022/07/23 02:15:48;;;;;;;6.10;5.70;;;;;;;13.70;100.00;101113.06;6079599;23;20038;-72
2022/07/23 02:18:15;;;;;;;6.63;6.22;;;;;;;15.06;100.00;101335.63;6080189;23;20017;-72
2022/07/23 02:20:42;;;;;;;6.63;6.22;;;;;;;14.99;100.00;101321.06;6087516;23;20026;-72
2022/07/23 02:23:08;;;;;;;6.25;5.88;;;;;;;14.69;100.00;101284.97;6079506;23;20380;-72
2022/07/23 02:25:35;;;;;;;7.03;6.63;;;;;;;15.30;100.00;101386.16;6077410;23;20042;-72
2022/07/23 02:28:02;;;;;;;5.60;5.40;;;;;;;15.26;100.00;101389.94;6086029;23;20014;-71
2022/07/23 02:30:29;;;;;;;7.03;6.72;;;;;;;14.34;100.00;101243.84;6027541;23;20026;-72
2022/07/23 02:32:55;;;;;;;6.07;5.72;;;;;;;14.85;100.00;101327.19;6074644;23;20025;-72
2022/07/23 02:35:22;;;;;;;5.80;5.50;;;;;;;14.78;100.00;101329.34;6080793;23;20024;-72
2022/07/23 02:37:48;;;;;;;5.30;5.10;;;;;;;15.15;100.00;101387.91;6067972;23;20268;-72
2022/07/23 02:40:17;;;;;;;6.57;6.18;;;;;;;14.59;100.00;101304.97;6084419;23;20041;-72
2022/07/23 02:42:43;;;;;;;5.68;5.38;;;;;;;14.84;100.00;101357.22;6063679;23;20014;-72
2022/07/23 02:45:10;;;;;;;5.53;5.22;;;;;;;14.96;100.00;101365.25;6047316;23;20030;-72
2022/07/23 02:47:37;;;;;;;6.68;6.30;;;;;;;14.57;100.00;101299.75;5997425;23;20358;-72
2022/07/23 02:50:05;;;;;;;5.88;5.57;;;;;;;15.02;100.00;101382.53;6050339;23;20669;-72
2022/07/23 02:52:31;;;;;;;7.05;6.75;;;;;;;14.99;100.00;101381.88;6050311;23;20104;-72
2022/07/23 02:54:58;;;;;;;6.28;5.97;;;;;;;14.95;100.00;101390.00;6044430;23;20015;-72
2022/07/23 02:57:24;;;;;;;7.13;6.82;;;;;;;14.71;100.00;101343.84;6044121;23;20038;-72
2022/07/23 02:59:51;;;;;;;6.00;5.70;;;;;;;14.32;100.00;101293.25;6054952;23;20053;-72
2022/07/23 03:02:17;;;;;;;5.85;5.45;;;;;;;14.87;100.00;101391.38;6053565;23;20037;-72
2022/07/23 03:04:44;;;;;;;5.75;5.45;;;;;;;14.36;100.00;101331.75;6054512;23;20078;-72
2022/07/23 03:07:10;;;;;;;6.05;5.75;;;;;;;14.82;100.00;101385.53;6037035;23;20015;-72
2022/07/23 03:09:37;;;;;;;6.20;5.70;;;;;;;14.55;100.00;101347.41;6048712;23;20018;-72
2022/07/23 03:12:03;;;;;;;5.88;5.57;;;;;;;14.08;100.00;101269.13;6052675;23;20025;-72
2022/07/23 03:14:35;;;;;;;7.00;6.60;;;;;;;14.32;100.00;101332.03;6046625;23;20506;-72
2022/07/23 03:17:02;;;;;;;5.78;5.45;;;;;;;14.57;100.00;101352.59;6057818;23;20028;-72
2022/07/23 03:19:28;;;;;;;7.65;7.25;;;;;;;14.68;100.00;101383.69;6046354;23;20357;-72
2022/07/23 03:21:55;;;;;;;6.43;6.07;;;;;;;14.30;100.00;101324.19;6053134;23;20021;-72
2022/07/23 03:24:23;;;;;;;6.60;6.25;;;;;;;14.26;100.00;101319.19;6042199;23;20018;-72
2022/07/23 03:26:49;;;;;;;6.65;6.35;;;;;;;14.63;100.00;101381.28;6054842;23;20580;-72
2022/07/23 03:29:17;;;;;;;5.60;5.30;;;;;;;14.18;100.00;101308.22;6050203;23;20030;-72
2022/07/23 03:31:43;;;;;;;5.20;5.00;;;;;;;14.24;100.00;101323.69;6041641;23;20620;-72
2022/07/23 03:34:10;;;;;;;5.20;4.95;;;;;;;14.36;100.00;101336.19;6050406;23;20279;-72
2022/07/23 03:36:36;;;;;;;7.28;6.93;;;;;;;14.24;100.00;101339.53;6037485;23;20011;-72
2022/07/23 03:39:04;;;;;;;5.90;5.60;;;;;;;14.61;100.00;101379.69;6055281;23;20651;-72
2022/07/23 03:41:31;;;;;;;6.95;6.65;;;;;;;13.90;100.00;101268.41;6049131;23;20267;-72
2022/07/23 03:43:57;;;;;;;5.18;4.97;;;;;;;14.25;100.00;101315.69;6057950;23;20014;-73
2022/07/23 03:46:23;;;;;;;6.22;5.93;;;;;;;14.59;100.00;101385.06;6073637;23;20048;-73
2022/07/23 03:48:50;;;;;;;5.70;5.40;;;;;;;14.41;100.00;101351.75;6078089;23;20022;-72
2022/07/23 03:51:23;;;;;;;6.55;6.25;;;;;;;14.56;100.00;101375.53;6072655;23;20350;-71
2022/07/23 03:53:50;;;;;;;5.82;5.55;;;;;;;14.56;100.00;101369.41;6055331;23;20022;-70
2022/07/23 03:56:16;;;;;;;5.90;5.50;;;;;;;14.41;100.00;101355.25;6078440;23;20030;-71
2022/07/23 03:58:44;;;;;;;5.82;5.53;;;;;;;14.21;100.00;101314.16;6074994;23;20025;-71
2022/07/23 04:01:10;;;;;;;5.30;5.10;;;;;;;14.62;100.00;101379.59;6069516;23;20623;-70
2022/07/23 04:03:37;;;;;;;6.88;6.57;;;;;;;14.64;100.00;101369.81;6070075;23;20089;-70
2022/07/23 04:06:03;;;;;;;6.35;5.95;;;;;;;14.11;100.00;101283.94;6076269;23;20022;-71
2022/07/23 04:08:30;;;;;;;6.63;6.32;;;;;;;14.58;100.00;101345.53;6062540;23;20424;-71
2022/07/23 04:10:56;;;;;;;6.22;5.72;;;;;;;13.94;100.00;101234.78;6080785;23;20146;-72
2022/07/23 04:13:23;;;;;;;5.70;5.47;;;;;;;14.33;100.00;101291.47;6066223;23;20409;-72
2022/07/23 04:15:50;;;;;;;5.28;5.05;;;;;;;14.23;100.00;101275.34;6081773;23;20026;-71
2022/07/23 04:18:17;;;;;;;5.03;4.82;;;;;;;15.05;100.00;101363.84;6071768;23;20014;-71
2022/07/23 04:20:44;;;;;;;5.50;5.20;;;;;;;14.90;100.00;101288.97;6080095;23;20021;-71
2022/07/23 04:23:10;;;;;;;5.40;5.20;;;;;;;15.27;100.00;101304.34;6086060;23;20190;-71
2022/07/23 04:25:38;;;;;;;5.75;5.45;;;;;;;15.52;100.00;101328.34;6087138;23;20034;-71
2022/07/23 04:28:04;;;;;;;5.60;5.30;;;;;;;15.14;100.00;101257.53;6077394;23;20365;-72
2022/07/23 04:30:31;;;;;;;8.25;7.55;;;;;;;15.93;100.00;101377.81;6073989;23;20090;-71
2022/07/23 04:32:57;;;;;;;5.65;5.35;;;;;;;16.40;100.00;101372.16;6084860;23;20018;-72
2022/07/23 04:35:24;;;;;;;5.70;5.40;;;;;;;16.77;100.00;101375.03;6078415;23;20248;-73
2022/07/23 04:37:50;;;;;;;6.15;5.85;;;;;;;17.20;100.00;101378.28;6060040;23;20014;-71
2022/07/23 04:40:17;;;;;;;6.53;6.13;;;;;;;17.59;100.00;101378.25;6050073;23;20376;-71
2022/07/23 04:42:43;;;;;;;5.85;5.40;;;;;;;17.93;100.00;101380.19;6077612;23;20010;-72
2022/07/23 04:45:10;;;;;;;6.22;5.82;;;;;;;17.68;100.00;101287.31;6029826;23;20026;-72
2022/07/23 04:47:39;;;;;;;6.43;5.97;;;;;;;18.64;100.00;101376.78;6043087;23;20403;-71
2022/07/23 04:50:05;;;;;;;5.95;5.65;;;;;;;19.03;100.00;101383.59;6054388;23;20232;-72
2022/07/23 04:52:32;;;;;;;8.63;8.10;;;;;;;18.88;100.00;101336.88;6037639;23;20732;-72
2022/07/23 04:54:58;;;;;;;6.47;5.95;;;;;;;19.23;100.00;101387.38;6036631;23;20421;-72
2022/07/23 04:57:25;;;;;;;6.00;5.70;;;;;;;19.51;100.00;101388.69;6043106;23;20047;-72
2022/07/23 04:59:51;;;;;;;6.90;6.38;;;;;;;19.76;100.00;101377.94;6027659;23;20077;-72
2022/07/23 05:02:18;;;;;;;6.60;6.20;;;;;;;19.78;100.00;101390.16;6020628;23;20034;-71
2022/07/23 05:04:44;;;;;;;6.20;5.90;;;;;;;19.43;100.00;101316.59;6019081;23;20034;-72
2022/07/23 05:07:11;;;;;;;6.07;5.78;;;;;;;20.16;100.00;101386.22;6049648;23;20068;-71
2022/07/23 05:09:37;;;;;;;7.45;6.82;;;;;;;20.49;99.04;101363.09;6022897;23;20204;-72
2022/07/23 05:12:04;;;;;;;6.63;6.22;;;;;;;20.68;96.69;101347.25;6024501;23;21385;-72
2022/07/23 05:14:30;;;;;;;8.40;7.75;;;;;;;20.87;94.01;101340.34;6051583;23;20034;-71
2022/07/23 05:16:57;;;;;;;6.22;5.90;;;;;;;21.43;93.17;101389.81;6047247;23;20261;-71
2022/07/23 05:19:23;;;;;;;7.38;6.97;;;;;;;21.49;90.77;101368.78;6031876;23;20592;-72
2022/07/23 05:21:50;;;;;;;7.03;6.57;;;;;;;21.33;88.65;101355.06;6044019;23;20019;-72
2022/07/23 05:24:17;;;;;;;7.07;6.68;;;;;;;21.94;87.36;101393.38;6052639;23;20182;-71
2022/07/23 05:26:43;;;;;;;6.45;6.07;;;;;;;21.97;85.67;101391.28;6041762;23;20463;-71
2022/07/23 05:29:09;;;;;;;7.80;7.20;;;;;;;21.32;83.85;101356.84;6052831;23;20014;-71
2022/07/23 05:31:36;;;;;;;7.25;6.85;;;;;;;20.62;88.59;101434.94;6019548;23;20015;-72
2022/07/23 05:34:03;;;;;;;6.22;5.93;;;;;;;20.37;92.04;101423.59;6032259;23;20011;-72
2022/07/23 05:36:31;;;;;;;7.38;6.97;;;;;;;19.68;97.81;101437.94;6025558;23;20236;-72
2022/07/23 05:38:58;;;;;;;6.43;5.95;;;;;;;19.82;97.73;101372.13;6026966;23;20021;-72
2022/07/23 05:41:25;;;;;;;6.72;6.38;;;;;;;20.38;94.61;101355.13;6042109;23;20345;-71
2022/07/23 05:43:51;;;;;;;6.43;6.03;;;;;;;20.68;91.67;101381.06;6030097;23;20143;-70
2022/07/23 05:46:18;;;;;;;6.60;6.10;;;;;;;20.93;91.98;101419.88;6054977;23;20045;-71
2022/07/23 05:48:49;;;;;;;6.97;6.47;;;;;;;20.96;91.78;101413.44;6022379;23;20437;-71
2022/07/23 05:51:21;;;;;;;6.00;5.70;;;;;;;20.43;92.55;101355.59;6048651;23;20026;-71
2022/07/23 05:53:47;;;;;;;6.78;6.38;;;;;;;20.47;91.74;101434.38;6044982;23;20014;-72
2022/07/23 05:56:15;;;;;;;6.40;6.10;;;;;;;20.18;94.88;101388.75;6043763;23;20207;-72
2022/07/23 05:58:41;;;;;;;6.18;5.88;;;;;;;20.38;95.01;101445.75;6043985;23;20063;-72
2022/07/23 06:01:08;;;;;;;6.28;5.97;;;;;;;20.21;96.05;101450.66;6049879;23;20180;-71
2022/07/23 06:03:35;;;;;;;7.10;6.72;;;;;;;19.89;96.91;101413.28;6048243;23;20014;-72
2022/07/23 06:06:01;;;;;;;6.63;6.13;;;;;;;20.46;97.15;101443.31;6053224;23;20394;-71
2022/07/23 06:08:28;;;;;;;7.15;6.65;;;;;;;20.74;93.08;101388.56;6017095;23;20101;-72
2022/07/23 06:10:54;;;;;;;6.43;5.82;;;;;;;20.63;92.31;101408.13;6013693;23;20512;-71
2022/07/23 06:13:21;;;;;;;7.05;6.65;;;;;;;21.15;93.32;101437.59;6023857;23;20470;-72
2022/07/23 06:15:48;;;;;;;5.95;5.65;;;;;;;20.98;90.67;101385.63;6040170;23;20463;-72
2022/07/23 06:18:14;;;;;;;6.72;6.32;;;;;;;21.48;89.00;101384.94;6019147;23;20468;-71
2022/07/23 06:20:41;;;;;;;6.85;6.35;;;;;;;22.18;87.73;101420.56;6039984;23;20032;-72
2022/07/23 06:23:07;;;;;;;6.00;5.70;;;;;;;21.86;85.31;101352.16;6020577;23;20864;-73
2022/07/23 06:25:34;;;;;;;7.32;6.93;;;;;;;21.20;86.20;101371.28;6041840;23;20425;-72
2022/07/23 06:28:00;;;;;;;6.60;6.20;;;;;;;21.29;89.57;101434.56;6054521;23;20015;-72
2022/07/23 06:30:27;;;;;;;7.47;7.07;;;;;;;20.78;90.28;101383.81;6020324;23;20281;-72
2022/07/23 06:32:53;;;;;;;6.85;6.35;;;;;;;20.68;92.37;101387.25;6053160;23;20018;-72
2022/07/23 06:35:20;;;;;;;6.35;5.95;;;;;;;21.29;91.48;101444.41;6046528;23;20038;-72
2022/07/23 06:37:46;;;;;;;7.03;6.53;;;;;;;20.57;91.26;101405.97;6019020;23;20020;-72
2022/07/23 06:40:14;;;;;;;7.05;6.55;;;;;;;20.12;91.61;101411.41;6053621;23;20022;-71
2022/07/23 06:42:40;;;;;;;6.60;6.18;;;;;;;20.37;96.66;101468.09;6043706;23;20033;-72
2022/07/23 06:45:07;;;;;;;6.88;6.32;;;;;;;20.49;95.51;101459.91;6054470;23;20430;-71
2022/07/23 06:47:34;;;;;;;6.57;6.07;;;;;;;20.79;93.58;101455.72;6046000;23;20038;-71
2022/07/23 06:50:00;;;;;;;6.50;6.10;;;;;;;20.39;92.48;101424.31;6027585;23;20029;-72
2022/07/23 06:52:27;;;;;;;8.13;7.70;;;;;;;20.97;92.07;101461.34;6025091;23;20026;-71
2022/07/23 06:54:53;;;;;;;6.80;6.40;;;;;;;20.86;92.32;101462.22;6051578;23;20452;-71
2022/07/23 06:57:19;;;;;;;6.20;5.90;;;;;;;20.85;92.00;101441.88;6032657;23;20381;-72
2022/07/23 06:59:46;;;;;;;6.95;6.55;;;;;;;20.85;90.07;101460.53;6053138;23;20027;-71
2022/07/23 07:02:19;;;;;;;7.22;6.60;;;;;;;20.91;91.50;101462.69;6014922;23;20084;-72
2022/07/23 07:04:45;;;;;;;6.63;6.20;;;;;;;20.80;91.50;101470.75;6049924;23;20033;-71
2022/07/23 07:07:12;;;;;;;7.13;6.72;;;;;;;20.95;90.96;101470.41;6018697;23;20682;-71
2022/07/23 07:09:38;;;;;;;7.28;6.78;;;;;;;21.21;91.21;101466.41;6016939;23;20126;-71
2022/07/23 07:12:05;;;;;;;6.80;6.32;;;;;;;21.12;91.17;101424.47;6054390;23;20117;-71
2022/07/23 07:14:32;;;;;;;7.45;7.05;;;;;;;21.08;88.59;101407.03;6018832;23;20031;-71
2022/07/23 07:16:58;;;;;;;7.32;6.82;;;;;;;21.19;86.93;101455.03;6057180;23;20040;-72
2022/07/23 07:19:25;;;;;;;8.48;7.97;;;;;;;20.74;89.98;101492.59;6044820;23;20029;-71
2022/07/23 07:21:51;;;;;;;7.13;6.53;;;;;;;20.89;92.84;101477.16;6047915;23;20015;-72
2022/07/23 07:24:17;;;;;;;7.45;6.78;;;;;;;20.59;89.21;101462.72;6051177;23;20038;-71
2022/07/23 07:26:44;;;;;;;6.60;6.20;;;;;;;20.75;91.00;101442.75;6052711;23;20010;-72
2022/07/23 07:29:11;;;;;;;6.60;6.20;;;;;;;20.49;90.02;101477.75;6024660;23;20634;-72
2022/07/23 07:31:37;;;;;;;8.77;8.20;;;;;;;20.46;90.52;101430.81;6039045;23;20023;-71
2022/07/23 07:34:04;;;;;;;6.85;6.45;;;;;;;20.50;89.72;101418.94;6051434;23;20022;-72
2022/07/23 07:36:33;;;;;;;7.85;7.13;;;;;;;20.87;90.14;101484.44;6014723;23;20700;-71
2022/07/23 07:38:59;;;;;;;6.80;6.40;;;;;;;21.04;90.71;101489.19;6054201;23;20420;-72
2022/07/23 07:41:26;;;;;;;8.20;7.60;;;;;;;20.66;90.00;101423.88;6020799;23;20152;-73
2022/07/23 07:43:53;;;;;;;7.70;7.20;;;;;;;21.42;89.88;101487.75;6055206;23;20309;-72
2022/07/23 07:46:19;;;;;;;7.05;6.65;;;;;;;21.42;86.25;101487.75;6028103;23;20035;-72
2022/07/23 07:48:46;;;;;;;7.65;7.15;;;;;;;21.55;85.36;101457.34;6048561;23;20015;-72
2022/07/23 07:51:12;;;;;;;7.25;6.78;;;;;;;21.97;83.73;101475.94;6058008;23;20459;-71
2022/07/23 07:53:38;;;;;;;8.68;8.02;;;;;;;21.86;82.81;101453.69;6020774;23;20463;-72
2022/07/23 07:56:05;;;;;;;6.80;6.40;;;;;;;21.95;82.25;101481.44;6056571;23;20368;-72
2022/07/23 07:58:32;;;;;;;8.60;7.95;;;;;;;21.77;82.50;101481.22;6051182;23;20026;-71
2022/07/23 08:00:58;;;;;;;6.93;6.43;;;;;;;21.47;84.25;101466.88;6052619;23;20723;-71
2022/07/23 08:03:24;;;;;;;8.23;7.72;;;;;;;21.73;84.22;101498.50;6048221;23;20015;-72
2022/07/23 08:05:51;;;;;;;7.00;6.57;;;;;;;21.42;77.46;101511.78;6056962;23;20014;-72
2022/07/23 08:08:17;;;;;;;6.65;6.25;;;;;;;21.21;76.98;101470.88;6041935;23;20023;-72
2022/07/23 08:10:44;;;;;;;7.22;6.68;;;;;;;21.88;76.66;101517.69;6047033;23;20696;-71
2022/07/23 08:13:15;;;;;;;6.80;6.40;;;;;;;21.28;75.68;101472.91;6043636;23;20038;-72
2022/07/23 08:15:43;;;;;;;7.18;6.70;;;;;;;21.22;75.11;101499.28;6044556;23;20022;-71
2022/07/23 08:18:09;;;;;;;9.23;6.90;;;;;;;21.54;76.95;101509.94;6023073;23;20105;-72
2022/07/23 08:20:36;;;;;;;7.68;7.22;;;;;;;21.74;78.36;101488.66;6021150;23;20022;-71
2022/07/23 08:23:05;;;;;;;7.00;6.60;;;;;;;21.61;74.85;101444.31;6021273;23;20349;-72
2022/07/23 08:25:42;;;;;;;7.93;7.35;;;;;;;21.92;73.06;101509.25;6031918;23;20043;-71
2022/07/23 08:28:10;;;;;;;6.97;6.53;;;;;;;21.54;70.01;101487.72;6021862;23;20171;-71
2022/07/23 08:30:38;;;;;;;7.25;6.80;;;;;;;22.08;71.70;101530.16;6044091;23;20022;-71
2022/07/23 08:33:13;;;;;;;7.80;6.80;;;;;;;21.54;72.38;101525.13;6048317;23;20033;-71
2022/07/23 08:36:00;;;;;;;6.53;6.13;;;;;;;21.40;71.16;101545.78;6030274;23;20015;-71
2022/07/23 08:38:26;;;;;;;8.50;8.00;;;;;;;21.80;71.33;101538.91;6022758;23;20259;-71
2022/07/23 08:40:54;;;;;;;7.03;6.55;;;;;;;21.99;72.38;101536.31;6051747;23;20018;-71
2022/07/23 08:43:23;;;;;;;6.50;6.10;;;;;;;21.78;68.18;101538.19;6025820;23;20081;-72
2022/07/23 08:45:53;;;;;;;7.30;6.80;;;;;;;21.47;73.29;101439.34;6036516;23;20042;-71
2022/07/23 08:48:22;;;;;;;6.22;5.80;;;;;;;22.44;69.04;101514.53;6055347;23;20030;-72
2022/07/23 08:50:51;;;;;;;7.32;6.70;;;;;;;22.60;68.91;101497.13;6039235;23;20035;-71
2022/07/23 08:53:19;;;;;;;6.65;6.30;;;;;;;22.67;68.45;101477.69;6027319;23;20330;-72
2022/07/23 08:55:47;;;;;;;6.40;6.00;;;;;;;22.33;66.41;101503.09;6048635;23;20041;-71
2022/07/23 08:58:14;;;;;;;7.70;6.95;;;;;;;21.82;65.79;101401.50;6048488;23;20042;-71
2022/07/23 09:00:41;;;;;;;6.97;6.57;;;;;;;22.60;66.40;101539.91;6024352;23;20137;-72
2022/07/23 09:03:15;;;;;;;6.55;6.20;;;;;;;22.48;70.05;101507.09;6047380;23;20455;-71
2022/07/23 09:05:42;;;;;;;6.32;6.03;;;;;;;21.96;68.98;101485.81;6043029;23;20043;-71
2022/07/23 09:08:21;;;;;;;6.20;5.90;;;;;;;22.32;69.08;101541.53;6055449;23;20030;-71
2022/07/23 09:11:01;;;;;;;6.60;6.10;;;;;;;21.65;67.89;101351.38;6027402;23;20017;-72
2022/07/23 09:13:50;;;;;;;8.45;7.82;;;;;;;22.74;63.40;101541.34;6046801;23;20257;-71
2022/07/23 09:16:28;;;;;;;7.22;6.55;;;;;;;22.84;64.27;101534.16;6055196;23;20018;-73
2022/07/23 09:19:01;;;;;;;6.32;5.93;;;;;;;22.53;64.54;101510.19;6024901;23;20273;-71
2022/07/23 09:21:30;;;;;;;8.23;7.72;;;;;;;22.73;64.11;101523.59;6053908;23;20044;-72
2022/07/23 09:24:05;;;;;;;6.47;6.18;;;;;;;22.58;64.52;101515.13;6027539;23;20019;-71
2022/07/23 09:26:32;;;;;;;8.02;7.43;;;;;;;22.49;63.43;101559.59;6043995;23;20063;-72
2022/07/23 09:29:04;;;;;;;6.75;6.35;;;;;;;22.73;65.19;101555.69;6011996;23;20014;-71
2022/07/23 09:31:58;;;;;;;8.73;8.07;;;;;;;23.23;63.13;101551.13;6046367;23;20025;-72
2022/07/23 09:34:27;;;;;;;7.82;7.43;;;;;;;23.60;60.63;101546.84;6026075;23;20029;-72
2022/07/23 09:36:56;;;;;;;6.20;5.90;;;;;;;23.94;62.16;101557.06;6040765;23;20098;-72
2022/07/23 09:39:29;;;;;;;6.75;6.38;;;;;;;24.12;62.05;101471.31;6039645;23;20007;-72
2022/07/23 09:41:56;;;;;;;6.82;6.43;;;;;;;24.66;58.95;101534.00;6058541;23;20019;-71
2022/07/23 09:44:23;;;;;;;7.47;7.07;;;;;;;24.62;57.63;101522.72;6031596;23;20007;-71
2022/07/23 09:46:58;;;;;;;6.47;6.15;;;;;;;24.52;58.45;101475.47;6048406;23;20022;-71
2022/07/23 09:49:25;;;;;;;6.93;6.53;;;;;;;24.03;57.87;101557.00;6056437;23;20081;-72
2022/07/23 09:51:57;;;;;;;7.45;6.75;;;;;;;23.09;58.01;101576.50;6051639;23;20154;-71
2022/07/23 09:54:39;;;;;;;7.70;7.30;;;;;;;23.03;59.63;101571.69;6043866;23;20386;-71
2022/07/23 09:57:15;;;;;;;7.03;6.63;;;;;;;23.35;59.61;101561.66;6024318;23;20246;-71
2022/07/23 09:59:43;;;;;;;7.57;7.07;;;;;;;23.32;60.85;101532.50;6043192;23;20198;-72
2022/07/23 10:02:12;;;;;;;6.30;6.00;;;;;;;23.44;58.96;101505.41;6048564;23;20038;-71
2022/07/23 10:04:39;;;;;;;7.05;6.65;;;;;;;23.82;58.35;101535.78;6050062;23;20034;-71
2022/07/23 10:07:08;;;;;;;6.88;6.47;;;;;;;24.25;57.93;101550.41;6036261;23;20026;-71
2022/07/23 10:09:40;;;;;;;8.45;7.95;;;;;;;23.95;57.96;101526.56;6031611;23;20583;-71
2022/07/23 10:15:14;;;;;;;6.32;6.03;;;;;;;23.94;56.69;101465.91;5960993;23;20027;-71
2022/07/23 10:17:41;;;;;;;6.63;6.25;;;;;;;24.73;56.59;101528.84;6015350;23;20021;-71
2022/07/23 10:20:07;;;;;;;6.38;6.00;;;;;;;24.23;56.10;101503.28;6052819;23;20026;-73
2022/07/23 10:22:38;;;;;;;7.32;6.93;;;;;;;23.76;55.74;101498.00;6022795;23;20047;-71
2022/07/23 10:25:26;;;;;;;6.55;6.25;;;;;;;24.20;52.65;101547.34;6055381;23;20101;-71
2022/07/23 10:28:26;;;;;;;6.68;6.00;;;;;;;23.81;53.64;101555.53;6021589;23;20191;-70
2022/07/23 10:31:35;;;;;;;6.18;5.88;;;;;;;23.60;53.74;101562.91;6052545;23;20650;-71
2022/07/23 10:34:36;;;;;;;6.95;6.55;;;;;;;23.68;54.77;101560.34;6053049;23;20093;-71
2022/07/23 10:37:18;;;;;;;7.00;6.50;;;;;;;23.93;54.72;101555.38;6028398;23;20121;-72
2022/07/23 10:39:47;;;;;;;6.60;6.20;;;;;;;23.79;56.18;101528.03;6049258;23;20468;-72
2022/07/23 10:42:16;;;;;;;6.07;5.78;;;;;;;24.35;53.84;101536.97;6053293;23;20077;-71
2022/07/23 10:44:47;;;;;;;6.25;5.95;;;;;;;24.30;52.70;101499.03;6055728;23;20013;-71
2022/07/23 10:47:42;;;;;;;5.93;5.63;;;;;;;24.06;50.65;101537.97;6081641;23;20093;-71
2022/07/23 10:50:34;;;;;;;5.93;5.63;;;;;;;24.35;48.87;101538.81;6080907;23;20021;-70
2022/07/23 10:53:18;;;;;;;6.20;5.90;;;;;;;24.48;48.01;101507.09;6017280;23;20031;-70
2022/07/23 10:55:51;;;;;;;5.88;5.57;;;;;;;24.95;48.76;101525.69;6070418;23;20017;-70
2022/07/23 10:58:23;;;;;;;5.80;5.50;;;;;;;24.50;47.91;101540.03;6077357;23;20038;-71
2022/07/23 11:00:50;;;;;;;6.32;5.93;;;;;;;24.28;48.77;101501.84;6019326;23;20036;-70
2022/07/23 11:03:38;;;;;;;5.97;5.68;;;;;;;24.63;48.46;101510.97;6077067;23;20036;-71
2022/07/23 11:06:05;;;;;;;5.80;5.55;;;;;;;24.89;49.13;101531.69;6052500;23;20097;-70
2022/07/23 11:08:32;;;;;;;7.00;6.65;;;;;;;24.47;49.06;101540.28;6040495;23;20018;-70
2022/07/23 11:11:01;;;;;;;5.63;5.32;;;;;;;24.39;50.87;101543.72;6081448;23;20014;-71
2022/07/23 11:13:38;;;;;;;8.63;6.90;;;;;;;24.26;51.30;101546.75;6044207;23;20014;-70
2022/07/23 11:16:06;;;;;;;6.35;6.05;;;;;;;24.83;50.09;101543.03;6021191;23;20023;-71
2022/07/23 11:18:46;;;;;;;5.65;5.30;;;;;;;25.03;48.56;101544.56;6067107;23;20095;-71
2022/07/23 11:21:29;;;;;;;5.70;5.40;;;;;;;24.82;50.73;101549.44;6071234;23;20057;-71
2022/07/23 11:24:07;;;;;;;6.22;5.82;;;;;;;24.27;48.02;101475.16;6053652;23;20459;-71
2022/07/23 11:26:43;;;;;;;7.15;6.75;;;;;;;25.14;46.37;101542.63;6069424;23;20026;-71
2022/07/23 11:29:30;;;;;;;5.63;5.35;;;;;;;25.14;47.97;101546.19;6046518;23;20119;-71
2022/07/23 11:32:18;;;;;;;6.03;5.53;;;;;;;25.07;46.73;101486.84;6045577;23;20556;-71